METAR Data
IDs: Format: Raw Decoded Include TAF

Data at: 0653 UTC 23 Feb 2019

KF17 230635Z AUTO 00000KT 1/2SM FG OVC003 A2989 RMK AO2
KF17 230615Z AUTO 00000KT 3/4SM BR OVC003 A2989 RMK AO2
KF17 230555Z AUTO 15003KT 1SM BR OVC003 A2990 RMK AO2 60001
KF17 230535Z AUTO 14003KT 3/4SM BR OVC003 A2990 RMK AO2
KF17 230515Z AUTO 14003KT 1/2SM FG OVC003 A2991 RMK AO2
KF17 230455Z AUTO 00000KT 1/2SM FG OVC003 A2992 RMK AO2
KF17 230435Z AUTO 00000KT 1/2SM FG OVC003 A2991 RMK AO2
KF17 230415Z AUTO 00000KT 1/2SM FG OVC003 A2992 RMK AO2
KF17 230355Z AUTO 00000KT 1/2SM FG OVC003 A2992 RMK AO2
KF17 230335Z AUTO 00000KT 1/2SM FG OVC003 A2993 RMK AO2
KF17 230315Z AUTO 00000KT 1/2SM FG OVC003 A2993 RMK AO2
KF17 230255Z AUTO 00000KT 1/2SM FG OVC003 A2994 RMK AO2 P0001 60001
KF17 230235Z AUTO 00000KT 1/2SM FG OVC003 A2994 RMK AO2 P0001
KF17 230215Z AUTO 00000KT 1/2SM FG OVC003 A2993 RMK AO2 P0001
KF17 230155Z AUTO 00000KT 1/2SM FG OVC003 A2992 RMK AO2
KF17 230135Z AUTO 00000KT 1/2SM FG OVC003 A2992 RMK AO2
KF17 230115Z AUTO 00000KT 1/2SM FG OVC003 A2993 RMK AO2
KF17 230055Z AUTO 34004KT 1/2SM FG OVC003 A2993 RMK AO2
KF17 230035Z AUTO 00000KT 1/2SM FG OVC003 A2992 RMK AO2
KF17 230015Z AUTO 08004KT 1/2SM FG OVC003 A2992 RMK AO2
KF17 222355Z AUTO 07003KT 1/4SM FG OVC003 A2993 RMK AO2
KF17 222335Z AUTO 00000KT 1/4SM FG OVC003 A2993 RMK AO2
KF17 222315Z AUTO 06003KT 1/2SM FG OVC003 A2994 RMK AO2
KF17 222255Z AUTO 03003KT 3/4SM BR OVC003 A2994 RMK AO2
KF17 222235Z AUTO 02003KT 3/4SM BR OVC003 A2994 RMK AO2
KF17 222215Z AUTO 00000KT 3/4SM BR OVC003 A2995 RMK AO2
KF17 222155Z AUTO 00000KT 3/4SM BR OVC003 A2995 RMK AO2
KF17 222135Z AUTO 08005KT 1SM BR OVC003 A2994 RMK AO2
KF17 222115Z AUTO 00000KT 1SM BR OVC003 A2994 RMK AO2
KF17 222055Z AUTO 05003KT 3/4SM BR OVC003 A2994 RMK AO2
KF17 222035Z AUTO 07004KT 3/4SM BR OVC003 A2995 RMK AO2
KF17 222015Z AUTO 05003KT 3/4SM BR OVC003 A2995 RMK AO2
KF17 221955Z AUTO 05003KT 3/4SM BR OVC003 A2996 RMK AO2
KF17 221935Z AUTO 07004KT 1/2SM FG OVC003 A2997 RMK AO2
KF17 221915Z AUTO 07003KT 1SM BR OVC003 A2999 RMK AO2
KF17 221855Z AUTO 00000KT 1 1/2SM -RA OVC003 A3000 RMK AO2
KF17 221835Z AUTO 08003KT 1 1/4SM BR OVC003 A3001 RMK AO2
KF17 221815Z AUTO 05003KT 2SM BR OVC003 A3002 RMK AO2
KF17 221755Z AUTO 00000KT 10SM OVC003 A3003 RMK AO2 60075
KF17 221735Z AUTO 00000KT 7SM OVC005 A3004 RMK AO2
KF17 221715Z AUTO 00000KT 10SM BKN005 BKN021 OVC026 A3004 RMK AO2
KF17 221655Z AUTO 00000KT 7SM -RA SCT007 BKN025 OVC040 A3005 RMK AO2 P0028
KF17 221635Z AUTO 00000KT 2 1/2SM +RA BKN005 BKN011 OVC023 A3005 RMK AO2 VIS 1V5 P0014
KF17 221615Z AUTO 30005KT 10SM RA OVC005 A3006 RMK AO2 P0001
KF17 221555Z AUTO 05003KT 5SM -RA SCT003 BKN009 OVC050 09/08 A3005 RMK AO2 P0023 T00850078
KF17 221535Z AUTO 03004KT 1 1/2SM +RA OVC003 A3004 RMK AO2 P0013
KF17 221515Z AUTO 00000KT 10SM OVC003 A3004 RMK AO2
KF17 221455Z AUTO 00000KT 10SM OVC005 A3004 RMK AO2 P0001 60024
KF17 221435Z AUTO 00000KT 10SM OVC005 A3005 RMK AO2 P0001
KF17 221415Z AUTO 00000KT 10SM RA OVC005 07/06 A3005 RMK AO2 T00680062
KF17 221355Z AUTO 00000KT 10SM -RA OVC005 08/07 A3004 RMK AO2 P0013 T00770070
KF17 221335Z AUTO 08004KT 10SM -RA BKN005 OVC019 08/07 A3002 RMK AO2 P0010 T00750067
KF17 221315Z AUTO 11006KT 5SM +RA BKN003 OVC020 07/07 A3004 RMK AO2 P0007 T00740067
KF17 221255Z AUTO 09004KT 5SM RA BKN003 OVC007 07/07 A3003 RMK AO2 P0009 T00730066
KF17 221235Z AUTO 06004KT 10SM -RA OVC005 07/07 A3002 RMK AO2 P0003 T00720065
KF17 221215Z AUTO 02003KT 10SM RA OVC005 07/07 A3004 RMK AO2 P0001 T00720065
KF17 221155Z AUTO 00000KT 10SM OVC005 A3004 RMK AO2 P0002 60018 70057 10073 20067
KF17 221135Z AUTO 00000KT 10SM OVC005 07/07 A3003 RMK AO2 P0002 T00720065
KF17 221115Z AUTO 02003KT 10SM RA OVC005 07/07 A3002 RMK AO2 P0001 T00710065
KF17 221055Z AUTO 00000KT 10SM -RA OVC005 07/07 A3002 RMK AO2 T00720065
KF17 221035Z AUTO 36004KT 10SM OVC005 07/07 A3001 RMK AO2 T00730066
KF17 221015Z AUTO 06003KT 10SM BKN005 OVC016 07/07 A3002 RMK AO2 T00720065
KF17 220955Z AUTO 05003KT 10SM -RA BKN005 OVC016 07/07 A3001 RMK AO2 P0001 T00720065
KF17 220935Z AUTO 02005KT 10SM -DZ OVC005 07/06 A3002 RMK AO2 P0001 T00700063
KF17 220915Z AUTO 02003KT 10SM -RA OVC005 07/06 A3002 RMK AO2 P0001 T00700063
KF17 220855Z AUTO 03003KT 10SM -RA OVC007 07/06 A3002 RMK AO2 P0004 60015 T00700064
KF17 220835Z AUTO 00000KT 10SM RA OVC005 07/06 A3003 RMK AO2 P0003 T00700062
KF17 220815Z AUTO 33003KT 10SM OVC005 07/06 A3004 RMK AO2 P0001 T00700062
KF17 220755Z AUTO 02004KT 10SM -RA OVC003 07/06 A3003 RMK AO2 P0008 T00700062
KF17 220735Z AUTO 00000KT 4SM +RA OVC003 07/06 A3003 RMK AO2 P0003 T00690062
KF17 220715Z AUTO 04004KT 3SM BR OVC003 07/06 A3003 RMK AO2 T00680061
KF17 220655Z AUTO 04004KT 3SM -DZ OVC003 07/06 A3004 RMK AO2 P0003 T00680061
KF17 220635Z AUTO 05004KT 3SM RA OVC003 07/06 A3004 RMK AO2 P0001 T00680061
KF17 220615Z AUTO 05007KT 3SM -DZ OVC003 07/06 A3003 RMK AO2 T00680061
KF17 220555Z AUTO 06003KT 3SM BR OVC003 07/06 A3005 RMK AO2 60001 T00680061
KF17 220535Z AUTO 04005KT 5SM -DZ OVC003 07/06 A3005 RMK AO2 T00670060
KF17 220515Z AUTO 06005KT 4SM RA OVC003 07/06 A3004 RMK AO2 T00670061
KF17 220455Z AUTO 04006KT 5SM BR OVC003 07/06 A3005 RMK AO2 P0001 T00670061
KF17 220435Z AUTO 05005KT 7SM OVC003 07/06 A3005 RMK AO2 T00670060
KF17 220415Z AUTO 06007KT 5SM BR OVC003 07/06 A3004 RMK AO2 T00670060
KF17 220355Z AUTO 07006KT 4SM BR OVC003 07/06 A3003 RMK AO2 T00660060
KF17 220335Z AUTO 08008KT 030V120 4SM BR OVC003 07/06 A3003 RMK AO2 T00650059
KF17 220315Z AUTO 07007KT 3SM BR OVC005 07/06 A3003 RMK AO2 T00650058
KF17 220255Z AUTO 06007KT 5SM HZ OVC005 A3003 RMK AO2
KF17 220235Z AUTO 07008G14KT 030V090 7SM OVC005 A3003 RMK AO2
KF17 220215Z AUTO 05006G14KT 10SM OVC005 A3003 RMK AO2
KF17 220155Z AUTO 06006G16KT 10SM OVC005 A3002 RMK AO2
KF17 220135Z AUTO 05005G14KT 10SM OVC005 A3001 RMK AO2
KF17 220115Z AUTO 06006G14KT 10SM OVC005 A3002 RMK AO2
KF17 220055Z AUTO 05008KT 010V080 7SM OVC005 A3001 RMK AO2
KF17 220035Z AUTO 05006G14KT 020V080 4SM HZ OVC005 A3001 RMK AO2
KF17 220015Z AUTO 05009G14KT 5SM HZ OVC005 A3002 RMK AO2
KF17 212355Z AUTO 03011KT 5SM HZ OVC005 A3002 RMK AO2 60018
KF17 212335Z AUTO 03008KT 5SM HZ OVC005 A3002 RMK AO2
KF17 212315Z AUTO 04008G14KT 5SM -DZ OVC005 A3002 RMK AO2
KF17 212255Z AUTO 02009KT 5SM -RA OVC005 A3002 RMK AO2 P0001
KF17 212235Z AUTO 03004KT 5SM DZ OVC005 A3001 RMK AO2 P0001
KF17 212215Z AUTO 02004KT 4SM DZ OVC005 A3002 RMK AO2
KF17 212155Z AUTO 02007KT 10SM OVC005 A3002 RMK AO2 P0001
KF17 212135Z AUTO 03006KT 10SM -RA OVC005 A3001 RMK AO2 P0001
KF17 212115Z AUTO 04008KT 010V070 10SM RA OVC005 A3000 RMK AO2 P0001
KF17 212055Z AUTO 04006KT 2 1/2SM RA OVC005 A3001 RMK AO2 P0012 60016
KF17 212035Z AUTO 03007KT 4SM DZ OVC005 A3001 RMK AO2 P0002
KF17 212015Z AUTO 01010G15KT 5SM -RA OVC005 A3001 RMK AO2 P0001
KF17 211955Z AUTO 02005KT 7SM RA OVC005 A3000 RMK AO2 P0001
KF17 211935Z AUTO 03007KT 4SM -RA BKN007 OVC013 A3000 RMK AO2 P0001
KF17 211915Z AUTO 03009KT 10SM BKN007 OVC013 A3002 RMK AO2
KF17 211855Z AUTO 03006KT 10SM OVC007 A3002 RMK AO2 P0003